sensor_id;sensor_type;location;lat;lon;timestamp;P1;durP1;ratioP1;P2;durP2;ratioP2
31206;SDS011;17834;52.992;8.856;2023-04-24T00:00:34;3.22;;;2.00;;
31206;SDS011;17834;52.992;8.856;2023-04-24T00:02:59;3.20;;;2.00;;
31206;SDS011;17834;52.992;8.856;2023-04-24T00:05:25;3.20;;;1.88;;
31206;SDS011;17834;52.992;8.856;2023-04-24T00:07:50;3.35;;;1.77;;
31206;SDS011;17834;52.992;8.856;2023-04-24T00:10:17;2.63;;;1.80;;
31206;SDS011;17834;52.992;8.856;2023-04-24T00:12:43;3.60;;;2.22;;
31206;SDS011;17834;52.992;8.856;2023-04-24T00:15:09;4.13;;;2.30;;
31206;SDS011;17834;52.992;8.856;2023-04-24T00:17:35;3.75;;;2.47;;
31206;SDS011;17834;52.992;8.856;2023-04-24T00:20:01;4.32;;;2.60;;
31206;SDS011;17834;52.992;8.856;2023-04-24T00:22:29;6.57;;;2.83;;
31206;SDS011;17834;52.992;8.856;2023-04-24T00:24:56;4.40;;;2.10;;
31206;SDS011;17834;52.992;8.856;2023-04-24T00:27:22;4.22;;;2.35;;
31206;SDS011;17834;52.992;8.856;2023-04-24T00:29:47;3.55;;;2.42;;
31206;SDS011;17834;52.992;8.856;2023-04-24T00:32:13;3.95;;;2.35;;
31206;SDS011;17834;52.992;8.856;2023-04-24T00:34:39;5.28;;;2.63;;
31206;SDS011;17834;52.992;8.856;2023-04-24T00:37:05;4.40;;;2.80;;
31206;SDS011;17834;52.992;8.856;2023-04-24T00:39:31;5.38;;;2.45;;
31206;SDS011;17834;52.992;8.856;2023-04-24T00:41:57;5.38;;;3.00;;
31206;SDS011;17834;52.992;8.856;2023-04-24T00:44:22;3.88;;;2.60;;
31206;SDS011;17834;52.992;8.856;2023-04-24T00:46:49;4.43;;;2.85;;
31206;SDS011;17834;52.992;8.856;2023-04-24T00:49:20;4.60;;;2.75;;
31206;SDS011;17834;52.992;8.856;2023-04-24T00:51:48;5.75;;;3.00;;
31206;SDS011;17834;52.992;8.856;2023-04-24T00:54:16;4.68;;;2.80;;
31206;SDS011;17834;52.992;8.856;2023-04-24T00:56:42;4.60;;;3.08;;
31206;SDS011;17834;52.992;8.856;2023-04-24T00:59:08;5.30;;;3.10;;
31206;SDS011;17834;52.992;8.856;2023-04-24T01:01:34;5.13;;;2.75;;
31206;SDS011;17834;52.992;8.856;2023-04-24T01:04:00;3.58;;;2.58;;
31206;SDS011;17834;52.992;8.856;2023-04-24T01:06:27;4.70;;;2.47;;
31206;SDS011;17834;52.992;8.856;2023-04-24T01:08:56;4.43;;;2.78;;
31206;SDS011;17834;52.992;8.856;2023-04-24T01:11:22;4.65;;;2.70;;
31206;SDS011;17834;52.992;8.856;2023-04-24T01:13:48;4.97;;;2.55;;
31206;SDS011;17834;52.992;8.856;2023-04-24T01:16:15;3.40;;;2.20;;
31206;SDS011;17834;52.992;8.856;2023-04-24T01:18:42;4.05;;;2.30;;
31206;SDS011;17834;52.992;8.856;2023-04-24T01:21:08;4.38;;;2.65;;
31206;SDS011;17834;52.992;8.856;2023-04-24T01:23:37;3.80;;;2.53;;
31206;SDS011;17834;52.992;8.856;2023-04-24T01:26:03;4.10;;;2.53;;
31206;SDS011;17834;52.992;8.856;2023-04-24T01:28:29;3.30;;;2.15;;
31206;SDS011;17834;52.992;8.856;2023-04-24T01:30:55;4.30;;;2.30;;
31206;SDS011;17834;52.992;8.856;2023-04-24T01:33:21;3.08;;;2.25;;
31206;SDS011;17834;52.992;8.856;2023-04-24T01:35:47;4.10;;;2.10;;
31206;SDS011;17834;52.992;8.856;2023-04-24T01:38:13;5.13;;;2.40;;
31206;SDS011;17834;52.992;8.856;2023-04-24T01:40:39;3.20;;;1.90;;
31206;SDS011;17834;52.992;8.856;2023-04-24T01:43:05;2.53;;;1.75;;
31206;SDS011;17834;52.992;8.856;2023-04-24T01:45:30;3.35;;;2.25;;
31206;SDS011;17834;52.992;8.856;2023-04-24T01:47:56;2.90;;;1.98;;
31206;SDS011;17834;52.992;8.856;2023-04-24T01:50:22;2.53;;;1.80;;
31206;SDS011;17834;52.992;8.856;2023-04-24T01:52:48;3.10;;;1.75;;
31206;SDS011;17834;52.992;8.856;2023-04-24T01:55:13;4.15;;;1.80;;
31206;SDS011;17834;52.992;8.856;2023-04-24T01:57:39;2.42;;;1.58;;
31206;SDS011;17834;52.992;8.856;2023-04-24T02:00:05;2.35;;;1.65;;
31206;SDS011;17834;52.992;8.856;2023-04-24T02:02:32;2.88;;;2.00;;
31206;SDS011;17834;52.992;8.856;2023-04-24T02:04:58;2.30;;;1.60;;
31206;SDS011;17834;52.992;8.856;2023-04-24T02:07:23;4.25;;;1.90;;
31206;SDS011;17834;52.992;8.856;2023-04-24T02:09:49;2.75;;;1.73;;
31206;SDS011;17834;52.992;8.856;2023-04-24T02:12:15;4.05;;;1.70;;
31206;SDS011;17834;52.992;8.856;2023-04-24T02:14:42;3.03;;;2.00;;
31206;SDS011;17834;52.992;8.856;2023-04-24T02:17:08;2.67;;;1.88;;
31206;SDS011;17834;52.992;8.856;2023-04-24T02:19:34;3.17;;;2.45;;
31206;SDS011;17834;52.992;8.856;2023-04-24T02:22:00;2.85;;;1.75;;
31206;SDS011;17834;52.992;8.856;2023-04-24T02:24:25;4.38;;;2.22;;
31206;SDS011;17834;52.992;8.856;2023-04-24T02:26:51;2.53;;;1.88;;
31206;SDS011;17834;52.992;8.856;2023-04-24T02:29:16;2.90;;;1.85;;
31206;SDS011;17834;52.992;8.856;2023-04-24T02:31:42;2.78;;;2.10;;
31206;SDS011;17834;52.992;8.856;2023-04-24T02:34:08;2.85;;;1.85;;
31206;SDS011;17834;52.992;8.856;2023-04-24T02:36:34;4.13;;;1.90;;
31206;SDS011;17834;52.992;8.856;2023-04-24T02:38:59;2.78;;;1.90;;
31206;SDS011;17834;52.992;8.856;2023-04-24T02:41:26;2.80;;;1.85;;
31206;SDS011;17834;52.992;8.856;2023-04-24T02:43:56;3.35;;;2.17;;
31206;SDS011;17834;52.992;8.856;2023-04-24T02:46:21;4.75;;;2.15;;
31206;SDS011;17834;52.992;8.856;2023-04-24T02:48:47;3.70;;;2.63;;
31206;SDS011;17834;52.992;8.856;2023-04-24T02:51:13;3.65;;;2.55;;
31206;SDS011;17834;52.992;8.856;2023-04-24T02:53:38;4.32;;;2.25;;
31206;SDS011;17834;52.992;8.856;2023-04-24T02:56:04;4.53;;;2.35;;
31206;SDS011;17834;52.992;8.856;2023-04-24T02:58:29;3.35;;;2.10;;
31206;SDS011;17834;52.992;8.856;2023-04-24T03:00:55;4.40;;;2.00;;
31206;SDS011;17834;52.992;8.856;2023-04-24T03:03:21;5.68;;;2.20;;
31206;SDS011;17834;52.992;8.856;2023-04-24T03:05:47;2.88;;;2.10;;
31206;SDS011;17834;52.992;8.856;2023-04-24T03:08:12;2.95;;;1.88;;
31206;SDS011;17834;52.992;8.856;2023-04-24T03:10:39;3.45;;;2.03;;
31206;SDS011;17834;52.992;8.856;2023-04-24T03:13:05;3.83;;;2.00;;
31206;SDS011;17834;52.992;8.856;2023-04-24T03:15:30;4.32;;;1.95;;
31206;SDS011;17834;52.992;8.856;2023-04-24T03:17:56;4.50;;;2.08;;
31206;SDS011;17834;52.992;8.856;2023-04-24T03:20:22;4.97;;;1.98;;
31206;SDS011;17834;52.992;8.856;2023-04-24T03:22:48;3.20;;;2.05;;
31206;SDS011;17834;52.992;8.856;2023-04-24T03:25:14;2.58;;;1.85;;
31206;SDS011;17834;52.992;8.856;2023-04-24T03:27:39;2.78;;;1.73;;
31206;SDS011;17834;52.992;8.856;2023-04-24T03:30:06;3.60;;;2.20;;
31206;SDS011;17834;52.992;8.856;2023-04-24T03:32:32;3.22;;;1.77;;
31206;SDS011;17834;52.992;8.856;2023-04-24T03:34:58;2.75;;;1.85;;
31206;SDS011;17834;52.992;8.856;2023-04-24T03:37:23;3.50;;;2.22;;
31206;SDS011;17834;52.992;8.856;2023-04-24T03:39:49;2.88;;;1.60;;
31206;SDS011;17834;52.992;8.856;2023-04-24T03:42:14;2.58;;;1.70;;
31206;SDS011;17834;52.992;8.856;2023-04-24T03:44:40;2.53;;;1.63;;
31206;SDS011;17834;52.992;8.856;2023-04-24T03:47:06;3.25;;;1.88;;
31206;SDS011;17834;52.992;8.856;2023-04-24T03:49:31;2.63;;;1.70;;
31206;SDS011;17834;52.992;8.856;2023-04-24T03:51:57;3.08;;;1.80;;
31206;SDS011;17834;52.992;8.856;2023-04-24T03:54:22;3.00;;;1.92;;
31206;SDS011;17834;52.992;8.856;2023-04-24T03:56:48;2.22;;;1.48;;
31206;SDS011;17834;52.992;8.856;2023-04-24T03:59:13;3.42;;;1.40;;
31206;SDS011;17834;52.992;8.856;2023-04-24T04:01:39;2.55;;;1.50;;
31206;SDS011;17834;52.992;8.856;2023-04-24T04:04:05;3.10;;;1.48;;
31206;SDS011;17834;52.992;8.856;2023-04-24T04:06:31;3.58;;;1.40;;
31206;SDS011;17834;52.992;8.856;2023-04-24T04:08:57;2.42;;;1.38;;
31206;SDS011;17834;52.992;8.856;2023-04-24T04:11:23;2.38;;;1.50;;
31206;SDS011;17834;52.992;8.856;2023-04-24T04:13:49;4.28;;;2.25;;
31206;SDS011;17834;52.992;8.856;2023-04-24T04:16:15;4.97;;;1.95;;
31206;SDS011;17834;52.992;8.856;2023-04-24T04:18:43;5.80;;;1.80;;
31206;SDS011;17834;52.992;8.856;2023-04-24T04:21:10;3.25;;;1.88;;
31206;SDS011;17834;52.992;8.856;2023-04-24T04:23:36;3.80;;;1.52;;
31206;SDS011;17834;52.992;8.856;2023-04-24T04:26:01;3.35;;;1.35;;
31206;SDS011;17834;52.992;8.856;2023-04-24T04:28:28;2.47;;;1.50;;
31206;SDS011;17834;52.992;8.856;2023-04-24T04:30:55;3.63;;;1.70;;
31206;SDS011;17834;52.992;8.856;2023-04-24T04:33:22;3.47;;;1.23;;
31206;SDS011;17834;52.992;8.856;2023-04-24T04:35:51;2.88;;;1.40;;
31206;SDS011;17834;52.992;8.856;2023-04-24T04:38:17;2.90;;;1.70;;
31206;SDS011;17834;52.992;8.856;2023-04-24T04:40:43;5.35;;;2.70;;
31206;SDS011;17834;52.992;8.856;2023-04-24T04:43:09;3.42;;;1.70;;
31206;SDS011;17834;52.992;8.856;2023-04-24T04:45:35;7.53;;;2.75;;
31206;SDS011;17834;52.992;8.856;2023-04-24T04:48:06;3.25;;;1.88;;
31206;SDS011;17834;52.992;8.856;2023-04-24T04:50:32;3.58;;;1.67;;
31206;SDS011;17834;52.992;8.856;2023-04-24T04:52:58;3.38;;;1.70;;
31206;SDS011;17834;52.992;8.856;2023-04-24T04:55:24;2.10;;;1.35;;
31206;SDS011;17834;52.992;8.856;2023-04-24T04:57:50;3.72;;;1.63;;
31206;SDS011;17834;52.992;8.856;2023-04-24T05:00:16;4.47;;;1.63;;
31206;SDS011;17834;52.992;8.856;2023-04-24T05:02:42;2.20;;;1.52;;
31206;SDS011;17834;52.992;8.856;2023-04-24T05:05:08;5.55;;;1.98;;
31206;SDS011;17834;52.992;8.856;2023-04-24T05:07:35;3.35;;;1.85;;
31206;SDS011;17834;52.992;8.856;2023-04-24T05:10:00;4.68;;;1.60;;
31206;SDS011;17834;52.992;8.856;2023-04-24T05:12:26;4.45;;;2.00;;
31206;SDS011;17834;52.992;8.856;2023-04-24T05:14:52;4.65;;;2.00;;
31206;SDS011;17834;52.992;8.856;2023-04-24T05:17:17;3.30;;;1.90;;
31206;SDS011;17834;52.992;8.856;2023-04-24T05:19:43;4.20;;;1.90;;
31206;SDS011;17834;52.992;8.856;2023-04-24T05:22:09;5.90;;;1.90;;
31206;SDS011;17834;52.992;8.856;2023-04-24T05:24:36;3.70;;;2.15;;
31206;SDS011;17834;52.992;8.856;2023-04-24T05:27:02;5.43;;;1.98;;
31206;SDS011;17834;52.992;8.856;2023-04-24T05:29:29;4.75;;;2.63;;
31206;SDS011;17834;52.992;8.856;2023-04-24T05:31:56;3.88;;;2.35;;
31206;SDS011;17834;52.992;8.856;2023-04-24T05:34:22;5.80;;;2.58;;
31206;SDS011;17834;52.992;8.856;2023-04-24T05:36:47;4.72;;;2.00;;
31206;SDS011;17834;52.992;8.856;2023-04-24T05:39:13;6.55;;;2.90;;
31206;SDS011;17834;52.992;8.856;2023-04-24T05:41:39;3.70;;;2.53;;
31206;SDS011;17834;52.992;8.856;2023-04-24T05:44:05;4.15;;;2.35;;
31206;SDS011;17834;52.992;8.856;2023-04-24T05:46:31;4.45;;;2.53;;
31206;SDS011;17834;52.992;8.856;2023-04-24T05:48:56;3.85;;;2.22;;
31206;SDS011;17834;52.992;8.856;2023-04-24T05:51:22;3.60;;;2.25;;
31206;SDS011;17834;52.992;8.856;2023-04-24T05:53:48;3.83;;;2.60;;
31206;SDS011;17834;52.992;8.856;2023-04-24T05:56:13;5.13;;;3.05;;
31206;SDS011;17834;52.992;8.856;2023-04-24T05:58:40;4.03;;;2.75;;
31206;SDS011;17834;52.992;8.856;2023-04-24T06:01:06;5.22;;;3.08;;
31206;SDS011;17834;52.992;8.856;2023-04-24T06:03:31;4.50;;;3.33;;
31206;SDS011;17834;52.992;8.856;2023-04-24T06:05:57;5.45;;;3.35;;
31206;SDS011;17834;52.992;8.856;2023-04-24T06:08:23;4.60;;;3.45;;
31206;SDS011;17834;52.992;8.856;2023-04-24T06:10:48;7.53;;;3.85;;
31206;SDS011;17834;52.992;8.856;2023-04-24T06:13:14;5.20;;;4.15;;
31206;SDS011;17834;52.992;8.856;2023-04-24T06:15:40;8.00;;;4.88;;
31206;SDS011;17834;52.992;8.856;2023-04-24T06:18:06;6.68;;;4.95;;
31206;SDS011;17834;52.992;8.856;2023-04-24T06:20:32;7.90;;;5.50;;
31206;SDS011;17834;52.992;8.856;2023-04-24T06:22:58;7.40;;;4.93;;
31206;SDS011;17834;52.992;8.856;2023-04-24T06:25:26;8.77;;;5.60;;
31206;SDS011;17834;52.992;8.856;2023-04-24T06:27:52;10.95;;;5.90;;
31206;SDS011;17834;52.992;8.856;2023-04-24T06:30:19;7.95;;;5.20;;
31206;SDS011;17834;52.992;8.856;2023-04-24T06:32:44;7.07;;;5.18;;
31206;SDS011;17834;52.992;8.856;2023-04-24T06:35:10;9.65;;;5.72;;
31206;SDS011;17834;52.992;8.856;2023-04-24T06:37:37;8.15;;;5.85;;
31206;SDS011;17834;52.992;8.856;2023-04-24T06:40:06;11.32;;;6.20;;
31206;SDS011;17834;52.992;8.856;2023-04-24T06:42:32;10.25;;;6.55;;
31206;SDS011;17834;52.992;8.856;2023-04-24T06:44:58;10.40;;;5.63;;
31206;SDS011;17834;52.992;8.856;2023-04-24T06:47:24;9.50;;;6.32;;
31206;SDS011;17834;52.992;8.856;2023-04-24T06:49:49;10.02;;;6.40;;
31206;SDS011;17834;52.992;8.856;2023-04-24T06:52:17;10.68;;;6.70;;
31206;SDS011;17834;52.992;8.856;2023-04-24T06:54:43;15.30;;;6.75;;
31206;SDS011;17834;52.992;8.856;2023-04-24T06:57:08;10.15;;;6.90;;
31206;SDS011;17834;52.992;8.856;2023-04-24T06:59:35;13.32;;;6.97;;
31206;SDS011;17834;52.992;8.856;2023-04-24T07:02:01;11.50;;;7.47;;
31206;SDS011;17834;52.992;8.856;2023-04-24T07:04:26;10.35;;;7.00;;
31206;SDS011;17834;52.992;8.856;2023-04-24T07:06:52;12.27;;;8.27;;
31206;SDS011;17834;52.992;8.856;2023-04-24T07:09:23;11.85;;;7.50;;
31206;SDS011;17834;52.992;8.856;2023-04-24T07:11:50;13.90;;;8.05;;
31206;SDS011;17834;52.992;8.856;2023-04-24T07:14:16;11.98;;;7.25;;
31206;SDS011;17834;52.992;8.856;2023-04-24T07:16:42;11.25;;;7.75;;
31206;SDS011;17834;52.992;8.856;2023-04-24T07:19:08;11.50;;;7.35;;
31206;SDS011;17834;52.992;8.856;2023-04-24T07:21:34;11.57;;;6.95;;
31206;SDS011;17834;52.992;8.856;2023-04-24T07:24:00;9.80;;;7.07;;
31206;SDS011;17834;52.992;8.856;2023-04-24T07:26:27;11.85;;;7.43;;
31206;SDS011;17834;52.992;8.856;2023-04-24T07:28:54;10.95;;;6.80;;
31206;SDS011;17834;52.992;8.856;2023-04-24T07:31:20;10.85;;;6.53;;
31206;SDS011;17834;52.992;8.856;2023-04-24T07:33:45;12.15;;;7.07;;
31206;SDS011;17834;52.992;8.856;2023-04-24T07:36:11;10.57;;;6.07;;
31206;SDS011;17834;52.992;8.856;2023-04-24T07:38:41;11.43;;;7.18;;
31206;SDS011;17834;52.992;8.856;2023-04-24T07:41:10;10.15;;;6.47;;
31206;SDS011;17834;52.992;8.856;2023-04-24T07:43:35;10.77;;;6.57;;
31206;SDS011;17834;52.992;8.856;2023-04-24T07:46:01;11.10;;;6.38;;
31206;SDS011;17834;52.992;8.856;2023-04-24T07:48:27;10.02;;;6.47;;
31206;SDS011;17834;52.992;8.856;2023-04-24T07:50:52;9.93;;;6.60;;
31206;SDS011;17834;52.992;8.856;2023-04-24T07:53:18;12.23;;;6.72;;
31206;SDS011;17834;52.992;8.856;2023-04-24T07:55:44;14.30;;;7.63;;
31206;SDS011;17834;52.992;8.856;2023-04-24T07:58:09;9.95;;;6.15;;
31206;SDS011;17834;52.992;8.856;2023-04-24T08:00:35;17.77;;;7.20;;
31206;SDS011;17834;52.992;8.856;2023-04-24T08:03:01;10.68;;;7.10;;
31206;SDS011;17834;52.992;8.856;2023-04-24T08:05:26;14.40;;;6.60;;
31206;SDS011;17834;52.992;8.856;2023-04-24T08:07:53;11.00;;;6.60;;
31206;SDS011;17834;52.992;8.856;2023-04-24T08:10:19;11.95;;;6.90;;
31206;SDS011;17834;52.992;8.856;2023-04-24T08:12:46;10.85;;;7.22;;
31206;SDS011;17834;52.992;8.856;2023-04-24T08:15:12;13.82;;;7.60;;
31206;SDS011;17834;52.992;8.856;2023-04-24T08:17:37;11.82;;;7.63;;
31206;SDS011;17834;52.992;8.856;2023-04-24T08:20:03;13.15;;;7.75;;
31206;SDS011;17834;52.992;8.856;2023-04-24T08:22:30;12.50;;;7.70;;
31206;SDS011;17834;52.992;8.856;2023-04-24T08:24:56;11.52;;;7.55;;
31206;SDS011;17834;52.992;8.856;2023-04-24T08:27:23;11.07;;;7.18;;
31206;SDS011;17834;52.992;8.856;2023-04-24T08:29:50;13.10;;;8.30;;
31206;SDS011;17834;52.992;8.856;2023-04-24T08:32:17;15.98;;;8.50;;
31206;SDS011;17834;52.992;8.856;2023-04-24T08:34:43;10.60;;;6.85;;
31206;SDS011;17834;52.992;8.856;2023-04-24T08:37:08;12.32;;;7.40;;
31206;SDS011;17834;52.992;8.856;2023-04-24T08:39:34;14.35;;;8.75;;
31206;SDS011;17834;52.992;8.856;2023-04-24T08:42:00;15.77;;;8.30;;
31206;SDS011;17834;52.992;8.856;2023-04-24T08:44:31;12.13;;;8.43;;
31206;SDS011;17834;52.992;8.856;2023-04-24T08:46:57;14.82;;;8.82;;
31206;SDS011;17834;52.992;8.856;2023-04-24T08:49:23;14.45;;;8.27;;
31206;SDS011;17834;52.992;8.856;2023-04-24T08:51:50;20.08;;;9.77;;
31206;SDS011;17834;52.992;8.856;2023-04-24T08:54:17;16.55;;;9.20;;
31206;SDS011;17834;52.992;8.856;2023-04-24T08:56:44;13.50;;;9.00;;
31206;SDS011;17834;52.992;8.856;2023-04-24T08:59:12;15.55;;;9.07;;
31206;SDS011;17834;52.992;8.856;2023-04-24T09:01:40;16.25;;;10.10;;
31206;SDS011;17834;52.992;8.856;2023-04-24T09:04:07;14.93;;;9.20;;
31206;SDS011;17834;52.992;8.856;2023-04-24T09:06:38;13.73;;;7.85;;
31206;SDS011;17834;52.992;8.856;2023-04-24T09:09:04;12.32;;;8.27;;
31206;SDS011;17834;52.992;8.856;2023-04-24T09:11:30;12.07;;;8.15;;
31206;SDS011;17834;52.992;8.856;2023-04-24T09:13:57;11.73;;;8.35;;
31206;SDS011;17834;52.992;8.856;2023-04-24T09:16:24;13.98;;;8.45;;
31206;SDS011;17834;52.992;8.856;2023-04-24T09:18:51;16.33;;;8.85;;
31206;SDS011;17834;52.992;8.856;2023-04-24T09:21:16;14.88;;;8.65;;
31206;SDS011;17834;52.992;8.856;2023-04-24T09:23:42;12.30;;;8.20;;
31206;SDS011;17834;52.992;8.856;2023-04-24T09:26:09;13.77;;;8.10;;
31206;SDS011;17834;52.992;8.856;2023-04-24T09:28:40;13.15;;;7.88;;
31206;SDS011;17834;52.992;8.856;2023-04-24T09:31:12;18.88;;;9.13;;
31206;SDS011;17834;52.992;8.856;2023-04-24T09:33:55;17.30;;;8.60;;
31206;SDS011;17834;52.992;8.856;2023-04-24T09:36:35;13.85;;;8.20;;
31206;SDS011;17834;52.992;8.856;2023-04-24T09:39:04;12.10;;;7.45;;
31206;SDS011;17834;52.992;8.856;2023-04-24T09:41:31;16.98;;;8.55;;
31206;SDS011;17834;52.992;8.856;2023-04-24T09:44:10;12.90;;;7.43;;
31206;SDS011;17834;52.992;8.856;2023-04-24T09:46:44;11.80;;;7.25;;
31206;SDS011;17834;52.992;8.856;2023-04-24T09:49:15;12.70;;;7.40;;
31206;SDS011;17834;52.992;8.856;2023-04-24T09:51:41;13.27;;;8.02;;
31206;SDS011;17834;52.992;8.856;2023-04-24T09:54:13;9.68;;;7.03;;
31206;SDS011;17834;52.992;8.856;2023-04-24T09:59:10;13.40;;;7.75;;
31206;SDS011;17834;52.992;8.856;2023-04-24T10:01:36;11.52;;;7.28;;
31206;SDS011;17834;52.992;8.856;2023-04-24T10:04:03;10.40;;;6.90;;
31206;SDS011;17834;52.992;8.856;2023-04-24T10:06:35;14.88;;;8.07;;
31206;SDS011;17834;52.992;8.856;2023-04-24T10:09:01;14.30;;;7.65;;
31206;SDS011;17834;52.992;8.856;2023-04-24T10:11:28;9.73;;;6.50;;
31206;SDS011;17834;52.992;8.856;2023-04-24T10:13:55;9.98;;;5.60;;
31206;SDS011;17834;52.992;8.856;2023-04-24T10:16:22;9.20;;;6.30;;
31206;SDS011;17834;52.992;8.856;2023-04-24T10:18:48;9.98;;;5.88;;
31206;SDS011;17834;52.992;8.856;2023-04-24T10:21:14;8.45;;;6.28;;
31206;SDS011;17834;52.992;8.856;2023-04-24T10:23:41;9.98;;;6.32;;
31206;SDS011;17834;52.992;8.856;2023-04-24T10:26:08;11.30;;;7.35;;
31206;SDS011;17834;52.992;8.856;2023-04-24T10:28:36;11.45;;;6.68;;
31206;SDS011;17834;52.992;8.856;2023-04-24T10:31:01;9.10;;;6.22;;
31206;SDS011;17834;52.992;8.856;2023-04-24T10:33:27;10.07;;;6.20;;
31206;SDS011;17834;52.992;8.856;2023-04-24T10:35:55;11.85;;;6.90;;
31206;SDS011;17834;52.992;8.856;2023-04-24T10:38:24;13.88;;;7.35;;
31206;SDS011;17834;52.992;8.856;2023-04-24T10:40:51;9.02;;;6.45;;
31206;SDS011;17834;52.992;8.856;2023-04-24T10:43:32;9.48;;;6.15;;
31206;SDS011;17834;52.992;8.856;2023-04-24T10:46:02;9.85;;;6.47;;
31206;SDS011;17834;52.992;8.856;2023-04-24T10:48:28;10.07;;;6.03;;
31206;SDS011;17834;52.992;8.856;2023-04-24T10:50:55;8.90;;;5.53;;
31206;SDS011;17834;52.992;8.856;2023-04-24T10:53:23;7.13;;;5.07;;
31206;SDS011;17834;52.992;8.856;2023-04-24T10:59:11;7.15;;;4.88;;
31206;SDS011;17834;52.992;8.856;2023-04-24T11:01:34;7.57;;;5.00;;
31206;SDS011;17834;52.992;8.856;2023-04-24T11:04:03;8.40;;;4.97;;
31206;SDS011;17834;52.992;8.856;2023-04-24T11:06:32;7.13;;;4.90;;
31206;SDS011;17834;52.992;8.856;2023-04-24T11:09:04;6.63;;;4.63;;
31206;SDS011;17834;52.992;8.856;2023-04-24T11:11:32;7.63;;;5.35;;
31206;SDS011;17834;52.992;8.856;2023-04-24T11:16:43;6.05;;;4.40;;
31206;SDS011;17834;52.992;8.856;2023-04-24T11:21:42;5.35;;;3.95;;
31206;SDS011;17834;52.992;8.856;2023-04-24T11:32:16;5.32;;;3.45;;
31206;SDS011;17834;52.992;8.856;2023-04-24T11:35:02;4.18;;;2.80;;
31206;SDS011;17834;52.992;8.856;2023-04-24T11:37:29;7.07;;;4.05;;
31206;SDS011;17834;52.992;8.856;2023-04-24T11:40:02;5.45;;;4.07;;
31206;SDS011;17834;52.992;8.856;2023-04-24T11:42:36;6.88;;;4.07;;
31206;SDS011;17834;52.992;8.856;2023-04-24T11:45:36;6.10;;;3.78;;
31206;SDS011;17834;52.992;8.856;2023-04-24T11:47:55;6.82;;;4.35;;
31206;SDS011;17834;52.992;8.856;2023-04-24T11:50:22;8.07;;;4.15;;
31206;SDS011;17834;52.992;8.856;2023-04-24T11:52:50;7.78;;;4.38;;
31206;SDS011;17834;52.992;8.856;2023-04-24T11:57:43;5.72;;;3.80;;
31206;SDS011;17834;52.992;8.856;2023-04-24T12:02:45;6.32;;;3.83;;
31206;SDS011;17834;52.992;8.856;2023-04-24T12:05:21;5.05;;;4.15;;
31206;SDS011;17834;52.992;8.856;2023-04-24T12:07:49;3.92;;;3.05;;
31206;SDS011;17834;52.992;8.856;2023-04-24T12:10:19;3.65;;;2.55;;
31206;SDS011;17834;52.992;8.856;2023-04-24T12:12:49;3.65;;;2.60;;
31206;SDS011;17834;52.992;8.856;2023-04-24T12:15:16;4.57;;;2.58;;
31206;SDS011;17834;52.992;8.856;2023-04-24T12:17:42;3.72;;;2.53;;
31206;SDS011;17834;52.992;8.856;2023-04-24T12:20:09;3.80;;;2.38;;
31206;SDS011;17834;52.992;8.856;2023-04-24T12:27:36;6.23;;;2.67;;
31206;SDS011;17834;52.992;8.856;2023-04-24T12:30:03;4.70;;;2.58;;
31206;SDS011;17834;52.992;8.856;2023-04-24T12:32:29;4.30;;;2.70;;
31206;SDS011;17834;52.992;8.856;2023-04-24T12:34:56;4.80;;;2.50;;
31206;SDS011;17834;52.992;8.856;2023-04-24T12:37:25;5.40;;;2.42;;
31206;SDS011;17834;52.992;8.856;2023-04-24T12:45:13;5.75;;;2.78;;
31206;SDS011;17834;52.992;8.856;2023-04-24T12:47:40;5.85;;;3.10;;
31206;SDS011;17834;52.992;8.856;2023-04-24T12:50:07;5.63;;;3.30;;
31206;SDS011;17834;52.992;8.856;2023-04-24T12:52:34;5.10;;;3.15;;
31206;SDS011;17834;52.992;8.856;2023-04-24T12:55:00;4.07;;;2.53;;
31206;SDS011;17834;52.992;8.856;2023-04-24T12:57:27;5.10;;;3.10;;
31206;SDS011;17834;52.992;8.856;2023-04-24T12:59:54;5.07;;;3.28;;
31206;SDS011;17834;52.992;8.856;2023-04-24T13:02:23;4.78;;;2.92;;
31206;SDS011;17834;52.992;8.856;2023-04-24T13:04:50;7.07;;;2.95;;
31206;SDS011;17834;52.992;8.856;2023-04-24T13:07:16;8.18;;;4.20;;
31206;SDS011;17834;52.992;8.856;2023-04-24T13:09:42;11.40;;;6.22;;
31206;SDS011;17834;52.992;8.856;2023-04-24T13:12:09;13.68;;;7.03;;
31206;SDS011;17834;52.992;8.856;2023-04-24T13:14:35;14.30;;;6.50;;
31206;SDS011;17834;52.992;8.856;2023-04-24T13:17:02;14.13;;;6.65;;
31206;SDS011;17834;52.992;8.856;2023-04-24T13:19:28;15.43;;;6.47;;
31206;SDS011;17834;52.992;8.856;2023-04-24T13:21:55;11.95;;;6.60;;
31206;SDS011;17834;52.992;8.856;2023-04-24T13:24:22;10.52;;;6.25;;
31206;SDS011;17834;52.992;8.856;2023-04-24T13:26:51;11.50;;;5.60;;
31206;SDS011;17834;52.992;8.856;2023-04-24T13:29:17;9.95;;;5.68;;
31206;SDS011;17834;52.992;8.856;2023-04-24T13:31:43;9.43;;;5.38;;
31206;SDS011;17834;52.992;8.856;2023-04-24T13:34:09;10.15;;;5.72;;
31206;SDS011;17834;52.992;8.856;2023-04-24T13:36:35;11.38;;;5.68;;
31206;SDS011;17834;52.992;8.856;2023-04-24T13:39:01;11.05;;;5.32;;
31206;SDS011;17834;52.992;8.856;2023-04-24T13:41:29;11.73;;;6.35;;
31206;SDS011;17834;52.992;8.856;2023-04-24T13:43:55;11.43;;;6.10;;
31206;SDS011;17834;52.992;8.856;2023-04-24T13:46:20;8.35;;;5.05;;
31206;SDS011;17834;52.992;8.856;2023-04-24T13:48:46;10.25;;;4.85;;
31206;SDS011;17834;52.992;8.856;2023-04-24T13:51:12;10.98;;;4.85;;
31206;SDS011;17834;52.992;8.856;2023-04-24T13:53:37;15.75;;;6.10;;
31206;SDS011;17834;52.992;8.856;2023-04-24T13:56:03;11.25;;;5.47;;
31206;SDS011;17834;52.992;8.856;2023-04-24T13:58:30;10.32;;;5.93;;
31206;SDS011;17834;52.992;8.856;2023-04-24T14:00:57;11.27;;;5.57;;
31206;SDS011;17834;52.992;8.856;2023-04-24T14:03:23;14.05;;;5.60;;
31206;SDS011;17834;52.992;8.856;2023-04-24T14:05:48;16.05;;;6.18;;
31206;SDS011;17834;52.992;8.856;2023-04-24T14:08:14;13.50;;;6.88;;
31206;SDS011;17834;52.992;8.856;2023-04-24T14:10:40;12.73;;;6.00;;
31206;SDS011;17834;52.992;8.856;2023-04-24T14:13:07;13.45;;;5.22;;
31206;SDS011;17834;52.992;8.856;2023-04-24T14:15:33;12.50;;;6.60;;
31206;SDS011;17834;52.992;8.856;2023-04-24T14:18:00;12.63;;;5.25;;
31206;SDS011;17834;52.992;8.856;2023-04-24T14:20:26;10.05;;;4.90;;
31206;SDS011;17834;52.992;8.856;2023-04-24T14:22:51;14.05;;;5.55;;
31206;SDS011;17834;52.992;8.856;2023-04-24T14:25:18;14.18;;;6.03;;
31206;SDS011;17834;52.992;8.856;2023-04-24T14:27:43;10.38;;;5.40;;
31206;SDS011;17834;52.992;8.856;2023-04-24T14:30:09;10.85;;;5.68;;
31206;SDS011;17834;52.992;8.856;2023-04-24T14:32:35;9.60;;;4.68;;
31206;SDS011;17834;52.992;8.856;2023-04-24T14:35:01;15.13;;;5.95;;
31206;SDS011;17834;52.992;8.856;2023-04-24T14:37:26;9.70;;;5.57;;
31206;SDS011;17834;52.992;8.856;2023-04-24T14:39:52;12.43;;;5.40;;
31206;SDS011;17834;52.992;8.856;2023-04-24T14:42:17;13.23;;;5.57;;
31206;SDS011;17834;52.992;8.856;2023-04-24T14:44:43;14.43;;;5.10;;
31206;SDS011;17834;52.992;8.856;2023-04-24T14:47:08;11.32;;;4.75;;
31206;SDS011;17834;52.992;8.856;2023-04-24T14:49:34;11.68;;;4.50;;
31206;SDS011;17834;52.992;8.856;2023-04-24T14:52:00;9.98;;;4.75;;
31206;SDS011;17834;52.992;8.856;2023-04-24T14:54:27;11.63;;;4.95;;
31206;SDS011;17834;52.992;8.856;2023-04-24T14:56:53;8.85;;;4.55;;
31206;SDS011;17834;52.992;8.856;2023-04-24T14:59:21;11.05;;;4.65;;
31206;SDS011;17834;52.992;8.856;2023-04-24T15:01:47;10.48;;;4.40;;
31206;SDS011;17834;52.992;8.856;2023-04-24T15:04:12;10.65;;;4.40;;
31206;SDS011;17834;52.992;8.856;2023-04-24T15:06:38;12.70;;;3.97;;
31206;SDS011;17834;52.992;8.856;2023-04-24T15:09:04;13.15;;;4.88;;
31206;SDS011;17834;52.992;8.856;2023-04-24T15:11:30;9.07;;;4.30;;
31206;SDS011;17834;52.992;8.856;2023-04-24T15:13:56;9.73;;;3.83;;